Pingree Grove, Illinois
Current Conditions -  °F | °C
As of 10:55 AM on Saturday 22 Nov 2014 (Local Time) from KDKB Reporting Station
Overcast Overcast  
Wind Chill: 31°   Ceiling: 400
Heat Index: 39°   Visibility: NA
Dew Point: 38°   Wind: 13mph
Humidity: 99%   Direction: 190°S
Pressure: 29.94"   Gusts: NA
Location:  42.0764°N, 88.5255°W
Report Text: KDKB 221655Z AUTO 19011KT OVC004 04/04 A2994 RMK AO2 T00370035 PWINO
Loading
Personal Weather Stations






























Interactive Weather Map New forecast layout! Learn more

10-Day Weather Forecast

Advertisements
Track Severe Weather on mobile